.
WxDataArchive / Data Records for 2013-07-16
2013-07-15 July 2013 2013-07-17

Data Records for Tuesday, 16 July 2013

Time	Temp	Chill	HIndex	Humid	Dewpt	 Wind 	HiWind	WindDir	Rain 	Barom 
-----	----	-----	------	-----	-----	------	------	-------	-----	----- 
00:00	78.8	78.8	81.7	79	71.7	0	0	---	0.00	30.245 
00:05	78.6	78.6	81.4	80	71.9	0	0	---	0.00	30.245 
00:10	78.6	78.6	81.4	80	71.9	0	0	---	0.00	30.245 
00:15	78.6	78.6	81.4	80	71.9	0	0	---	0.00	30.245 
00:20	78.6	78.6	81.4	80	71.9	0	0	---	0.00	30.245 
00:25	78.6	78.6	81.4	80	71.9	0	0	---	0.00	30.245 
00:30	78.6	78.6	81.4	80	71.9	0	0	---	0.00	30.245 
00:35	78.5	78.5	81.2	80	71.8	0	0	---	0.00	30.245 
00:40	78.5	78.5	81.3	81	72.2	0	0	---	0.00	30.245 
00:45	78.5	78.5	81.3	81	72.2	0	0	---	0.00	30.246 
00:50	78.5	78.5	81.3	81	72.2	0	0	---	0.00	30.246 
00:55	78.3	78.3	80.9	81	72.0	0	0	---	0.00	30.246 
01:00	78.3	78.3	80.9	81	72.0	0	0	---	0.00	30.254 
01:05	78.1	78.1	80.5	82	72.1	0	0	---	0.00	30.254 
01:10	78.3	78.3	81.0	83	72.7	0	0	---	0.00	30.254 
01:15	78.3	78.3	81.0	83	72.7	0	0	---	0.00	30.258 
01:20	78.1	78.1	80.6	83	72.5	0	0	---	0.00	30.258 
01:25	78.1	78.1	80.6	83	72.5	0	0	---	0.00	30.258 
01:30	78.1	78.1	80.6	83	72.5	0	0	---	0.00	30.254 
01:35	78.1	78.1	80.6	83	72.5	0	0	---	0.00	30.254 
01:40	78.1	78.1	80.6	83	72.5	0	0	---	0.00	30.254 
01:45	77.9	77.9	80.2	83	72.3	0	0	---	0.00	30.248 
01:50	77.9	77.9	80.2	84	72.7	0	0	---	0.00	30.248 
01:55	77.7	77.7	79.8	84	72.5	0	0	---	0.00	30.248 
02:00	77.6	77.6	79.6	84	72.4	0	0	---	0.00	30.247 
02:05	77.4	77.4	79.2	84	72.2	0	0	---	0.00	30.247 
02:10	77.0	77.0	78.4	84	71.8	0	0	---	0.00	30.247 
02:15	76.8	76.8	78.1	84	71.6	0	0	---	0.00	30.253 
02:20	76.7	76.7	77.8	85	71.8	0	0	---	0.00	30.253 
02:25	76.7	76.7	77.8	86	72.2	0	0	---	0.00	30.253 
02:30	76.5	76.5	77.4	86	72.0	0	0	---	0.00	30.259 
02:35	76.3	76.3	77.0	86	71.8	0	0	---	0.00	30.259 
02:40	76.1	76.1	76.6	86	71.6	0	0	---	0.00	30.259 
02:45	76.1	76.1	76.6	86	71.6	0	0	---	0.00	30.262 
02:50	76.0	76.0	76.5	86	71.5	0	0	---	0.00	30.262 
02:55	76.0	76.0	76.4	87	71.8	0	0	---	0.00	30.262 
03:00	75.8	75.8	76.1	86	71.3	0	0	---	0.00	30.261 
03:05	75.8	75.8	76.1	86	71.3	0	0	---	0.00	30.261 
03:10	75.8	75.8	76.1	86	71.3	0	0	---	0.00	30.261 
03:15	75.8	75.8	76.1	86	71.3	0	0	---	0.00	30.259 
03:20	75.8	75.8	76.1	86	71.3	0	0	---	0.00	30.259 
03:25	75.8	75.8	76.1	86	71.3	0	0	---	0.00	30.259 
03:30	75.6	75.6	75.6	87	71.4	0	0	---	0.00	30.253 
03:35	75.6	75.6	75.6	87	71.4	0	0	---	0.00	30.253 
03:40	75.4	75.4	75.3	87	71.2	0	0	---	0.00	30.253 
03:45	75.4	75.4	75.3	87	71.2	0	0	---	0.00	30.251 
03:50	75.3	75.3	75.1	87	71.2	0	0	---	0.00	30.251 
03:55	75.1	75.1	74.6	88	71.3	0	0	---	0.00	30.251 
04:00	75.1	75.1	74.6	88	71.3	0	0	---	0.00	30.248 
04:05	74.9	74.9	74.9	88	71.1	0	0	---	0.00	30.248 
04:10	74.7	74.7	74.7	88	70.9	0	0	---	0.00	30.248 
04:15	74.6	74.6	74.6	88	70.8	0	0	---	0.00	30.242 
04:20	74.6	74.6	74.6	88	70.8	0	0	---	0.00	30.242 
04:25	74.4	74.4	74.4	89	70.9	0	0	---	0.00	30.242 
04:30	74.4	74.4	74.4	89	70.9	0	0	---	0.00	30.239 
04:35	74.2	74.2	74.2	89	70.7	0	0	---	0.00	30.239 
04:40	74.2	74.2	74.2	89	70.7	0	0	---	0.00	30.239 
04:45	74.0	74.0	74.0	89	70.5	0	0	---	0.00	30.240 
04:50	73.9	73.9	73.9	89	70.4	0	0	---	0.00	30.240 
04:55	73.9	73.9	73.9	89	70.4	0	0	---	0.00	30.240 
05:00	73.7	73.7	73.7	89	70.2	0	0	---	0.00	30.247 
05:05	73.7	73.7	73.7	89	70.2	0	0	---	0.00	30.247 
05:10	73.5	73.5	73.5	89	70.0	0	0	---	0.00	30.247 
05:15	73.5	73.5	73.5	89	70.0	0	0	---	0.00	30.250 
05:20	73.5	73.5	73.5	90	70.4	0	0	---	0.00	30.250 
05:25	73.3	73.3	73.3	90	70.2	0	0	---	0.00	30.250 
05:30	73.3	73.3	73.3	90	70.2	0	0	---	0.00	30.251 
05:35	73.2	73.2	73.2	90	70.1	0	0	---	0.00	30.251 
05:40	73.2	73.2	73.2	90	70.1	0	0	---	0.00	30.251 
05:45	73.0	73.0	73.0	90	69.9	0	0	---	0.00	30.254 
05:50	73.0	73.0	73.0	90	69.9	0	0	---	0.00	30.254 
05:55	72.8	72.8	72.8	91	70.0	0	0	---	0.00	30.254 
06:00	72.8	72.8	72.8	91	70.0	0	0	---	0.00	30.263 
06:05	72.7	72.7	72.7	91	69.9	0	0	---	0.00	30.263 
06:10	72.7	72.7	72.7	91	69.9	0	0	---	0.00	30.263 
06:15	72.5	72.5	72.5	91	69.7	0	0	---	0.00	30.267 
06:20	72.5	72.5	72.5	91	69.7	0	0	---	0.00	30.267 
06:25	72.3	72.3	72.3	91	69.5	0	0	---	0.00	30.267 
06:30	72.3	72.3	72.3	91	69.5	0	0	---	0.00	30.270 
06:35	72.3	72.3	72.3	92	69.8	0	0	---	0.00	30.270 
06:40	72.1	72.1	72.1	92	69.6	0	0	---	0.00	30.270 
06:45	72.1	72.1	72.1	92	69.6	0	0	---	0.00	30.278 
06:50	72.1	72.1	72.1	92	69.6	0	0	---	0.00	30.278 
06:55	72.3	72.3	72.3	92	69.8	0	0	---	0.00	30.278 
07:00	72.3	72.3	72.3	92	69.8	0	0	---	0.00	30.282 
07:05	72.3	72.3	72.3	92	69.8	0	0	---	0.00	30.282 
07:10	72.5	72.5	72.5	92	70.0	0	0	---	0.00	30.282 
07:15	72.7	72.7	72.7	92	70.2	0	0	---	0.00	30.282 
07:20	72.8	72.8	72.8	92	70.3	0	0	---	0.00	30.282 
07:25	73.0	73.0	73.0	92	70.5	0	0	---	0.00	30.282 
07:30	73.5	73.5	73.5	92	71.0	0	0	---	0.00	30.285 
07:35	73.9	73.9	73.9	92	71.4	0	0	---	0.00	30.285 
07:40	74.2	74.2	74.2	91	71.4	0	0	---	0.00	30.285 
07:45	74.7	74.7	74.7	90	71.6	0	0	---	0.00	30.287 
07:50	75.1	75.1	74.6	88	71.3	0	0	---	0.00	30.287 
07:55	75.8	75.8	76.0	87	71.6	0	0	---	0.00	30.287 
08:00	76.3	76.3	77.1	85	71.4	0	0	---	0.00	30.292 
08:05	77.0	77.0	78.5	83	71.4	0	0	---	0.00	30.292 
08:10	77.4	77.4	79.2	81	71.1	0	1	90	0.00	30.292 
08:15	77.9	77.9	80.1	79	70.8	0	0	---	0.00	30.296 
08:20	78.5	78.5	81.1	78	71.1	0	0	---	0.00	30.296 
08:25	79.0	79.0	82.0	77	71.2	0	0	---	0.00	30.296 
08:30	79.4	79.4	82.6	76	71.2	0	0	---	0.00	30.295 
08:35	79.9	79.9	83.4	75	71.2	0	0	---	0.00	30.295 
08:40	80.5	80.5	84.5	75	71.8	0	1	90	0.00	30.295 
08:45	80.7	80.7	84.4	72	70.8	0	1	90	0.00	30.295 
08:50	81.1	81.1	85.0	71	70.8	0	2	90	0.00	30.295 
08:55	81.2	81.2	85.2	71	70.9	0	2	90	0.00	30.295 
09:00	81.6	81.6	85.9	71	71.3	0	1	90	0.00	30.296 
09:05	82.0	82.0	86.4	70	71.2	0	2	90	0.00	30.296 
09:10	82.4	82.4	87.2	70	71.6	0	1	68	0.00	30.296 
09:15	82.6	82.6	87.1	68	70.9	0	1	68	0.00	30.302 
09:20	82.8	82.8	87.5	68	71.1	1	3	292	0.00	30.302 
09:25	83.2	83.2	88.0	67	71.1	0	2	292	0.00	30.302 
09:30	83.4	83.4	88.4	67	71.3	0	2	292	0.00	30.305 
09:35	83.6	83.6	88.7	67	71.5	1	2	292	0.00	30.305 
09:40	83.8	83.8	88.6	65	70.7	0	3	292	0.00	30.305 
09:45	84.1	84.1	89.1	65	71.0	1	3	270	0.00	30.300 
09:50	84.3	84.3	88.9	63	70.3	1	3	270	0.00	30.300 
09:55	84.5	84.5	89.0	62	70.0	1	3	270	0.00	30.300 
10:00	84.5	84.5	89.0	62	70.0	1	3	270	0.00	30.302 
10:05	84.7	84.7	89.0	61	69.7	1	3	270	0.00	30.302 
10:10	84.7	84.7	89.0	61	69.7	2	4	292	0.00	30.302 
10:15	84.9	84.9	89.1	60	69.4	1	3	315	0.00	30.298 
10:20	85.1	85.1	89.4	60	69.6	1	3	315	0.00	30.298 
10:25	85.5	85.5	90.5	61	70.5	1	3	315	0.00	30.298 
10:30	85.7	85.7	89.9	58	69.2	1	4	315	0.00	30.295 
10:35	85.9	85.9	90.9	60	70.4	0	2	315	0.00	30.295 
10:40	86.1	86.1	90.2	57	69.1	1	3	315	0.00	30.295 
10:45	85.9	85.9	90.6	59	69.9	2	4	315	0.00	30.295 
10:50	86.1	86.1	90.6	58	69.6	1	3	292	0.00	30.295 
10:55	86.1	86.1	90.6	58	69.6	1	2	292	0.00	30.295 
11:00	86.3	86.3	90.6	57	69.2	1	3	292	0.00	30.295 
11:05	86.7	86.7	91.7	58	70.1	0	4	292	0.00	30.295 
11:10	87.0	87.0	90.8	54	68.3	1	3	292	0.00	30.295 
11:15	87.0	87.0	91.1	55	68.8	1	3	292	0.00	30.297 
11:20	87.2	87.2	91.1	54	68.5	1	4	292	0.00	30.297 
11:25	87.2	87.2	91.1	54	68.5	1	4	292	0.00	30.297 
11:30	87.0	87.0	91.1	55	68.8	1	4	292	0.00	30.295 
11:35	86.5	86.5	91.0	57	69.4	1	3	292	0.00	30.295 
11:40	87.2	87.2	91.9	56	69.6	1	4	270	0.00	30.295 
11:45	87.2	87.2	91.5	55	69.0	1	2	270	0.00	30.293 
11:50	86.5	86.5	91.0	57	69.4	0	1	270	0.00	30.293 
11:55	86.3	86.3	90.9	58	69.7	0	1	270	0.00	30.293 
12:00	87.0	87.0	91.9	57	69.9	0	1	270	0.00	30.291 
12:05	87.2	87.2	91.1	54	68.5	1	3	270	0.00	30.291 
12:10	86.7	86.7	91.0	56	69.1	1	4	292	0.00	30.291 
12:15	87.0	87.0	91.1	55	68.8	0	1	292	0.00	30.291 
12:20	87.6	87.6	91.8	54	68.9	1	3	292	0.00	30.291 
12:25	87.2	87.2	91.1	54	68.5	1	3	292	0.00	30.291 
12:30	86.7	86.7	90.6	55	68.6	0	2	292	0.00	30.291 
12:35	86.5	86.5	91.0	57	69.4	0	2	292	0.00	30.291 
12:40	86.3	86.3	90.6	57	69.2	0	1	292	0.00	30.291 
12:45	86.5	86.5	91.7	59	70.4	0	1	292	0.00	30.289 
12:50	87.6	87.6	92.6	56	69.9	0	2	292	0.00	30.289 
12:55	88.2	88.2	93.4	55	70.0	0	2	292	0.00	30.289 
13:00	88.0	88.0	92.6	54	69.2	0	2	292	0.00	30.285 
13:05	87.8	87.8	93.0	56	70.1	0	0	---	0.00	30.285 
13:10	88.0	88.0	92.6	54	69.2	0	0	---	0.00	30.285 
13:15	88.6	88.6	93.7	54	69.8	0	0	---	0.00	30.281 
13:20	89.0	89.0	94.9	55	70.7	0	0	---	0.00	30.281 
13:25	89.0	89.0	94.0	53	69.6	0	0	---	0.00	30.281 
13:30	89.0	89.0	94.5	54	70.2	0	0	---	0.00	30.280 
13:35	89.3	89.3	94.2	52	69.3	0	0	---	0.00	30.280 
13:40	89.5	89.5	95.9	55	71.2	0	1	315	0.00	30.280 
13:45	89.5	89.5	93.7	50	68.4	0	0	---	0.00	30.277 
13:50	88.4	88.4	93.3	54	69.6	0	3	315	0.00	30.277 
13:55	87.6	87.6	92.2	55	69.4	1	4	315	0.00	30.277 
14:00	87.2	87.2	91.5	55	69.0	1	3	315	0.00	30.276 
14:05	87.4	87.4	93.5	59	71.3	1	3	315	0.00	30.276 
14:10	87.8	87.8	91.8	53	68.5	1	3	315	0.00	30.276 
14:15	88.6	88.6	93.7	54	69.8	0	3	315	0.00	30.274 
14:20	89.0	89.0	94.0	53	69.6	1	4	315	0.00	30.274 
14:25	89.5	89.5	95.0	53	70.1	1	3	315	0.00	30.274 
14:30	89.7	89.7	94.9	52	69.7	0	3	315	0.00	30.267 
14:35	90.3	90.3	95.2	50	69.1	0	2	315	0.00	30.267 
14:40	90.7	90.7	94.5	47	67.7	1	3	248	0.00	30.267 
14:45	91.0	91.0	95.6	48	68.5	1	2	248	0.00	30.266 
14:50	91.0	91.0	96.0	49	69.1	1	3	248	0.00	30.266 
14:55	90.1	90.1	94.3	49	68.3	1	3	248	0.00	30.266 
15:00	89.3	89.3	93.7	51	68.8	1	3	248	0.00	30.264 
15:05	88.8	88.8	93.2	52	68.9	0	2	270	0.00	30.264 
15:10	88.4	88.4	92.9	53	69.1	1	3	270	0.00	30.264 
15:15	88.6	88.6	94.1	55	70.3	0	1	270	0.00	30.263 
15:20	88.8	88.8	92.8	51	68.3	1	3	270	0.00	30.263 
15:25	88.8	88.8	92.8	51	68.3	0	2	270	0.00	30.263 
15:30	89.0	89.0	93.6	52	69.0	1	4	270	0.00	30.256 
15:35	89.9	89.9	95.3	52	69.9	1	2	315	0.00	30.256 
15:40	90.5	90.5	96.5	52	70.4	1	3	315	0.00	30.256 
15:45	90.3	90.3	95.6	51	69.7	1	3	315	0.00	30.250 
15:50	90.3	90.3	95.2	50	69.1	0	2	315	0.00	30.250 
15:55	90.5	90.5	97.0	53	71.0	0	2	315	0.00	30.250 
16:00	91.0	91.0	97.0	51	70.3	0	1	315	0.00	30.249 
16:05	91.0	91.0	97.0	51	70.3	0	1	315	0.00	30.249 
16:10	91.0	91.0	96.0	49	69.1	1	3	315	0.00	30.249 
16:15	91.0	91.0	96.0	49	69.1	1	4	292	0.00	30.249 
16:20	91.0	91.0	97.0	51	70.3	0	3	315	0.00	30.249 
16:25	90.3	90.3	94.7	49	68.5	0	1	315	0.00	30.249 
16:30	89.9	89.9	94.9	51	69.3	0	3	315	0.00	30.249 
16:35	89.3	89.3	93.3	50	68.2	0	2	315	0.00	30.249 
16:40	89.7	89.7	94.5	51	69.1	1	2	315	0.00	30.249 
16:45	89.5	89.5	94.1	51	68.9	1	2	315	0.00	30.249 
16:50	89.5	89.5	93.2	49	67.8	0	0	---	0.00	30.249 
16:55	90.1	90.1	96.2	53	70.6	0	0	---	0.00	30.249 
17:00	91.2	91.2	98.5	53	71.6	0	0	---	0.00	30.247 
17:05	91.6	91.6	96.7	48	69.1	1	3	315	0.00	30.247 
17:10	91.4	91.4	95.8	47	68.3	1	3	315	0.00	30.247 
17:15	90.7	90.7	95.5	49	68.9	0	1	315	0.00	30.247 
17:20	90.3	90.3	95.2	50	69.1	0	1	315	0.00	30.247 
17:25	90.5	90.5	95.5	50	69.3	0	1	315	0.00	30.247 
17:30	91.4	91.4	95.4	46	67.7	1	2	315	0.00	30.247 
17:35	91.8	91.8	95.6	45	67.4	1	4	315	0.00	30.247 
17:40	91.4	91.4	95.4	46	67.7	1	4	270	0.00	30.247 
17:45	91.0	91.0	96.0	49	69.1	1	2	270	0.00	30.244 
17:50	91.0	91.0	96.0	49	69.1	1	3	292	0.00	30.244 
17:55	91.4	91.4	96.8	49	69.5	1	3	292	0.00	30.244 
18:00	91.6	91.6	96.2	47	68.5	0	3	292	0.00	30.242 
18:05	91.4	91.4	95.4	46	67.7	1	4	292	0.00	30.242 
18:10	91.6	91.6	95.7	46	67.8	1	3	292	0.00	30.242 
18:15	91.4	91.4	96.3	48	68.9	1	3	292	0.00	30.238 
18:20	91.0	91.0	95.6	48	68.5	1	3	292	0.00	30.238 
18:25	90.7	90.7	95.0	48	68.3	1	3	315	0.00	30.238 
18:30	90.5	90.5	95.5	50	69.3	0	1	315	0.00	30.236 
18:35	90.5	90.5	94.6	48	68.1	1	3	315	0.00	30.236 
18:40	90.3	90.3	94.7	49	68.5	2	4	315	0.00	30.236 
18:45	90.3	90.3	95.2	50	69.1	1	3	292	0.00	30.235 
18:50	90.1	90.1	94.8	50	68.9	1	3	292	0.00	30.235 
18:55	90.1	90.1	96.2	53	70.6	1	4	292	0.00	30.235 
19:00	90.1	90.1	95.2	51	69.5	1	3	292	0.00	30.234 
19:05	89.9	89.9	94.9	51	69.3	1	3	292	0.00	30.234 
19:10	89.9	89.9	94.9	51	69.3	0	2	292	0.00	30.234 
19:15	89.7	89.7	94.5	51	69.1	1	2	292	0.00	30.230 
19:20	89.5	89.5	94.5	52	69.5	1	3	292	0.00	30.230 
19:25	89.3	89.3	94.2	52	69.3	1	2	292	0.00	30.230 
19:30	89.3	89.3	94.2	52	69.3	1	2	292	0.00	30.230 
19:35	89.0	89.0	93.6	52	69.0	0	2	292	0.00	30.230 
19:40	89.0	89.0	92.8	50	67.9	1	3	292	0.00	30.230 
19:45	88.8	88.8	92.8	51	68.3	1	3	292	0.00	30.230 
19:50	88.8	88.8	93.2	52	68.9	0	2	292	0.00	30.230 
19:55	88.8	88.8	93.7	53	69.4	0	1	292	0.00	30.230 
20:00	88.6	88.6	93.3	53	69.2	0	1	292	0.00	30.233 
20:05	88.6	88.6	93.3	53	69.2	0	2	292	0.00	30.233 
20:10	88.4	88.4	92.9	53	69.1	0	1	292	0.00	30.233 
20:15	88.2	88.2	92.9	54	69.4	0	1	292	0.00	30.231 
20:20	88.0	88.0	92.6	54	69.2	0	1	292	0.00	30.231 
20:25	87.8	87.8	92.2	54	69.0	0	1	292	0.00	30.231 
20:30	87.6	87.6	91.8	54	68.9	0	1	292	0.00	30.233 
20:35	87.4	87.4	91.9	55	69.2	0	1	292	0.00	30.233 
20:40	87.4	87.4	92.2	56	69.7	0	0	---	0.00	30.233 
20:45	87.0	87.0	91.5	56	69.4	0	0	---	0.00	30.236 
20:50	86.7	86.7	91.3	57	69.6	0	0	---	0.00	30.236 
20:55	86.5	86.5	91.3	58	69.9	0	0	---	0.00	30.236 
21:00	86.3	86.3	90.9	58	69.7	0	0	---	0.00	30.236 
21:05	86.1	86.1	90.6	58	69.6	0	0	---	0.00	30.236 
21:10	85.7	85.7	90.2	59	69.7	0	0	---	0.00	30.236 
21:15	85.5	85.5	90.2	60	70.0	0	0	---	0.00	30.241 
21:20	85.1	85.1	89.8	61	70.1	0	0	---	0.00	30.241 
21:25	84.7	84.7	89.3	62	70.2	0	0	---	0.00	30.241 
21:30	84.3	84.3	88.6	62	69.8	0	0	---	0.00	30.240 
21:35	84.1	84.1	88.5	63	70.1	0	0	---	0.00	30.240 
21:40	83.8	83.8	88.3	64	70.3	0	0	---	0.00	30.240 
21:45	83.4	83.4	87.8	65	70.4	0	0	---	0.00	30.244 
21:50	83.0	83.0	87.1	65	70.0	0	0	---	0.00	30.244 
21:55	82.6	82.6	86.9	67	70.5	0	0	---	0.00	30.244 
22:00	82.4	82.4	86.7	68	70.8	0	0	---	0.00	30.248 
22:05	82.0	82.0	86.2	69	70.8	0	0	---	0.00	30.248 
22:10	81.8	81.8	85.9	69	70.6	0	0	---	0.00	30.248 
22:15	81.6	81.6	85.7	70	70.8	0	0	---	0.00	30.248 
22:20	81.2	81.2	85.2	71	70.9	0	0	---	0.00	30.248 
22:25	81.1	81.1	85.0	71	70.8	0	0	---	0.00	30.248 
22:30	80.9	80.9	85.0	73	71.4	0	0	---	0.00	30.252 
22:35	80.7	80.7	84.6	73	71.2	0	0	---	0.00	30.252 
22:40	80.5	80.5	84.2	73	71.0	0	0	---	0.00	30.252 
22:45	80.3	80.3	84.0	74	71.2	0	0	---	0.00	30.251 
22:50	79.9	79.9	83.4	75	71.2	0	0	---	0.00	30.251 
22:55	79.8	79.8	83.2	75	71.1	0	0	---	0.00	30.251 
23:00	79.6	79.6	82.8	75	71.0	0	0	---	0.00	30.255 
23:05	79.4	79.4	82.6	76	71.2	0	0	---	0.00	30.255 
23:10	79.2	79.2	82.2	76	71.0	0	0	---	0.00	30.255 
23:15	79.2	79.2	82.3	77	71.3	0	0	---	0.00	30.254 
23:20	78.8	78.8	81.6	77	71.0	0	0	---	0.00	30.254 
23:25	78.8	78.8	81.7	78	71.3	0	0	---	0.00	30.254 
23:30	78.6	78.6	81.3	78	71.1	0	0	---	0.00	30.251 
23:35	78.5	78.5	81.1	78	71.1	0	0	---	0.00	30.251 
23:40	78.5	78.5	81.2	79	71.4	0	0	---	0.00	30.251 
23:45	78.3	78.3	80.8	79	71.2	0	0	---	0.00	30.250 
23:50	78.1	78.1	80.5	80	71.4	0	0	---	0.00	30.250 
23:55	78.1	78.1	80.5	80	71.4	0	0	---	0.00	30.250 

CoCoRaHS
IN-AL-39
A2 Web Hosting
Creative Commons License
GoDaddy
search engine by freefind advanced

loaded 2018-11-16 23:28:45 • last modified 2010-11-18 10:43:29
Privacy PolicyDisclaimer
• wx.awcolley.com is powered by PmWiki v.2002016 •
• all content (unless otherwise noted) © 2018 A W Colley